Terminal Aerodrome Forecast
Issued by NWS

Home | Current Version | Previous Version | Text Only | Print | Product List | Glossary On
Versions: 1 2 3 4 5 6 7 8 9 10 11 12 13 14 15 16
000
FTUS43 KFGF 291720
TAFTVF
TAF
KTVF 291720Z 2918/3018 34007KT P6SM SCT015
     FM291900 31005KT P6SM BKN050
     FM292300 32006KT P6SM VCSH BKN080
     FM300300 VRB03KT P6SM BKN100
     FM301200 31005KT P6SM BKN040=

USA.gov is the U.S. government's official web portal to all federal, state and local government web resources and services.